sensor_id;sensor_type;location;lat;lon;timestamp;P1;durP1;ratioP1;P2;durP2;ratioP2
73239;SDS011;61452;40.054;4.110;2022-07-18T00:00:10;7.03;;;4.57;;
73239;SDS011;61452;40.054;4.110;2022-07-18T00:05:13;5.25;;;4.18;;
73239;SDS011;61452;40.054;4.110;2022-07-18T00:10:15;6.05;;;3.60;;
73239;SDS011;61452;40.054;4.110;2022-07-18T00:15:18;4.05;;;3.65;;
73239;SDS011;61452;40.054;4.110;2022-07-18T00:20:21;4.10;;;3.67;;
73239;SDS011;61452;40.054;4.110;2022-07-18T00:25:24;4.57;;;3.70;;
73239;SDS011;61452;40.054;4.110;2022-07-18T00:30:27;6.78;;;3.70;;
73239;SDS011;61452;40.054;4.110;2022-07-18T00:35:29;3.90;;;3.35;;
73239;SDS011;61452;40.054;4.110;2022-07-18T00:40:32;4.13;;;3.72;;
73239;SDS011;61452;40.054;4.110;2022-07-18T00:45:34;4.85;;;4.00;;
73239;SDS011;61452;40.054;4.110;2022-07-18T00:50:37;4.65;;;3.88;;
73239;SDS011;61452;40.054;4.110;2022-07-18T00:55:39;5.82;;;4.10;;
73239;SDS011;61452;40.054;4.110;2022-07-18T01:00:43;4.72;;;3.47;;
73239;SDS011;61452;40.054;4.110;2022-07-18T01:06:04;5.50;;;4.05;;
73239;SDS011;61452;40.054;4.110;2022-07-18T01:11:08;6.35;;;4.18;;
73239;SDS011;61452;40.054;4.110;2022-07-18T01:16:14;5.60;;;3.70;;
73239;SDS011;61452;40.054;4.110;2022-07-18T01:21:18;5.22;;;3.30;;
73239;SDS011;61452;40.054;4.110;2022-07-18T01:26:21;6.95;;;4.03;;
73239;SDS011;61452;40.054;4.110;2022-07-18T01:31:25;6.40;;;3.92;;
73239;SDS011;61452;40.054;4.110;2022-07-18T01:36:27;5.32;;;3.90;;
73239;SDS011;61452;40.054;4.110;2022-07-18T01:41:30;5.35;;;3.78;;
73239;SDS011;61452;40.054;4.110;2022-07-18T01:46:32;9.48;;;4.30;;
73239;SDS011;61452;40.054;4.110;2022-07-18T01:51:35;8.00;;;4.20;;
73239;SDS011;61452;40.054;4.110;2022-07-18T01:56:38;4.78;;;4.20;;
73239;SDS011;61452;40.054;4.110;2022-07-18T02:01:40;8.05;;;4.03;;
73239;SDS011;61452;40.054;4.110;2022-07-18T02:06:43;7.28;;;4.10;;
73239;SDS011;61452;40.054;4.110;2022-07-18T02:11:46;7.93;;;4.10;;
73239;SDS011;61452;40.054;4.110;2022-07-18T02:16:48;8.77;;;4.32;;
73239;SDS011;61452;40.054;4.110;2022-07-18T02:21:50;6.18;;;4.20;;
73239;SDS011;61452;40.054;4.110;2022-07-18T02:26:53;7.25;;;4.18;;
73239;SDS011;61452;40.054;4.110;2022-07-18T02:31:55;7.20;;;4.00;;
73239;SDS011;61452;40.054;4.110;2022-07-18T02:36:58;9.73;;;4.10;;
73239;SDS011;61452;40.054;4.110;2022-07-18T02:42:01;6.30;;;3.65;;
73239;SDS011;61452;40.054;4.110;2022-07-18T02:47:03;4.63;;;3.55;;
73239;SDS011;61452;40.054;4.110;2022-07-18T02:52:07;5.95;;;4.25;;
73239;SDS011;61452;40.054;4.110;2022-07-18T02:57:10;8.27;;;4.43;;
73239;SDS011;61452;40.054;4.110;2022-07-18T03:02:13;3.75;;;3.45;;
73239;SDS011;61452;40.054;4.110;2022-07-18T03:07:15;6.05;;;4.13;;
73239;SDS011;61452;40.054;4.110;2022-07-18T03:12:17;5.55;;;3.50;;
73239;SDS011;61452;40.054;4.110;2022-07-18T03:17:27;4.63;;;3.80;;
73239;SDS011;61452;40.054;4.110;2022-07-18T03:22:42;4.75;;;3.50;;
73239;SDS011;61452;40.054;4.110;2022-07-18T03:27:44;5.93;;;4.13;;
73239;SDS011;61452;40.054;4.110;2022-07-18T03:32:46;4.60;;;3.72;;
73239;SDS011;61452;40.054;4.110;2022-07-18T03:37:49;5.13;;;3.55;;
73239;SDS011;61452;40.054;4.110;2022-07-18T03:42:51;4.43;;;3.60;;
73239;SDS011;61452;40.054;4.110;2022-07-18T03:47:53;9.10;;;4.15;;
73239;SDS011;61452;40.054;4.110;2022-07-18T03:52:57;7.63;;;4.10;;
73239;SDS011;61452;40.054;4.110;2022-07-18T03:57:59;5.93;;;3.95;;
73239;SDS011;61452;40.054;4.110;2022-07-18T04:03:02;5.20;;;3.60;;
73239;SDS011;61452;40.054;4.110;2022-07-18T04:08:06;4.38;;;3.60;;
73239;SDS011;61452;40.054;4.110;2022-07-18T04:13:08;4.90;;;4.22;;
73239;SDS011;61452;40.054;4.110;2022-07-18T04:18:11;7.20;;;4.72;;
73239;SDS011;61452;40.054;4.110;2022-07-18T04:23:13;5.88;;;4.18;;
73239;SDS011;61452;40.054;4.110;2022-07-18T04:28:20;4.45;;;3.72;;
73239;SDS011;61452;40.054;4.110;2022-07-18T04:33:22;7.97;;;4.00;;
73239;SDS011;61452;40.054;4.110;2022-07-18T04:38:24;5.22;;;3.50;;
73239;SDS011;61452;40.054;4.110;2022-07-18T04:43:27;7.15;;;4.07;;
73239;SDS011;61452;40.054;4.110;2022-07-18T04:48:29;5.80;;;3.85;;
73239;SDS011;61452;40.054;4.110;2022-07-18T04:53:32;6.43;;;3.80;;
73239;SDS011;61452;40.054;4.110;2022-07-18T04:58:34;7.93;;;3.55;;
73239;SDS011;61452;40.054;4.110;2022-07-18T05:03:36;6.10;;;4.50;;
73239;SDS011;61452;40.054;4.110;2022-07-18T05:08:38;8.75;;;4.60;;
73239;SDS011;61452;40.054;4.110;2022-07-18T05:13:41;5.65;;;4.03;;
73239;SDS011;61452;40.054;4.110;2022-07-18T05:18:43;9.93;;;4.45;;
73239;SDS011;61452;40.054;4.110;2022-07-18T05:23:46;4.75;;;3.70;;
73239;SDS011;61452;40.054;4.110;2022-07-18T05:28:48;7.43;;;3.90;;
73239;SDS011;61452;40.054;4.110;2022-07-18T05:33:51;6.05;;;4.40;;
73239;SDS011;61452;40.054;4.110;2022-07-18T05:38:53;6.55;;;4.07;;
73239;SDS011;61452;40.054;4.110;2022-07-18T05:43:55;9.93;;;4.70;;
73239;SDS011;61452;40.054;4.110;2022-07-18T05:48:58;10.85;;;4.70;;
73239;SDS011;61452;40.054;4.110;2022-07-18T05:54:00;7.65;;;3.88;;
73239;SDS011;61452;40.054;4.110;2022-07-18T05:59:02;8.23;;;4.20;;
73239;SDS011;61452;40.054;4.110;2022-07-18T06:04:06;9.32;;;4.97;;
73239;SDS011;61452;40.054;4.110;2022-07-18T06:09:08;7.38;;;4.55;;
73239;SDS011;61452;40.054;4.110;2022-07-18T06:14:10;8.20;;;4.68;;
73239;SDS011;61452;40.054;4.110;2022-07-18T06:19:13;7.00;;;4.03;;
73239;SDS011;61452;40.054;4.110;2022-07-18T06:24:21;8.43;;;5.07;;
73239;SDS011;61452;40.054;4.110;2022-07-18T06:29:23;7.32;;;4.30;;
73239;SDS011;61452;40.054;4.110;2022-07-18T06:34:26;8.18;;;4.63;;
73239;SDS011;61452;40.054;4.110;2022-07-18T06:39:28;8.20;;;4.60;;
73239;SDS011;61452;40.054;4.110;2022-07-18T06:44:30;12.80;;;5.72;;
73239;SDS011;61452;40.054;4.110;2022-07-18T06:49:33;8.30;;;4.80;;
73239;SDS011;61452;40.054;4.110;2022-07-18T06:54:35;11.00;;;4.88;;
73239;SDS011;61452;40.054;4.110;2022-07-18T06:59:39;5.70;;;4.65;;
73239;SDS011;61452;40.054;4.110;2022-07-18T07:04:49;5.47;;;4.35;;
73239;SDS011;61452;40.054;4.110;2022-07-18T07:09:51;7.63;;;4.43;;
73239;SDS011;61452;40.054;4.110;2022-07-18T07:14:54;9.52;;;5.00;;
73239;SDS011;61452;40.054;4.110;2022-07-18T07:19:56;7.38;;;6.00;;
73239;SDS011;61452;40.054;4.110;2022-07-18T07:24:58;7.10;;;5.13;;
73239;SDS011;61452;40.054;4.110;2022-07-18T07:30:00;7.30;;;5.63;;
73239;SDS011;61452;40.054;4.110;2022-07-18T07:35:03;5.63;;;4.97;;
73239;SDS011;61452;40.054;4.110;2022-07-18T07:40:08;6.15;;;5.55;;
73239;SDS011;61452;40.054;4.110;2022-07-18T07:45:11;6.20;;;5.55;;
73239;SDS011;61452;40.054;4.110;2022-07-18T07:50:15;5.45;;;4.80;;
73239;SDS011;61452;40.054;4.110;2022-07-18T07:55:17;6.25;;;5.30;;
73239;SDS011;61452;40.054;4.110;2022-07-18T08:00:20;11.18;;;6.28;;
73239;SDS011;61452;40.054;4.110;2022-07-18T08:05:23;6.43;;;5.80;;
73239;SDS011;61452;40.054;4.110;2022-07-18T08:10:26;7.28;;;5.22;;
73239;SDS011;61452;40.054;4.110;2022-07-18T08:15:29;6.82;;;4.97;;
73239;SDS011;61452;40.054;4.110;2022-07-18T08:20:32;5.65;;;4.78;;
73239;SDS011;61452;40.054;4.110;2022-07-18T08:25:38;10.82;;;5.30;;
73239;SDS011;61452;40.054;4.110;2022-07-18T08:30:42;5.88;;;4.65;;
73239;SDS011;61452;40.054;4.110;2022-07-18T08:35:44;7.10;;;4.88;;
73239;SDS011;61452;40.054;4.110;2022-07-18T08:40:47;8.07;;;5.70;;
73239;SDS011;61452;40.054;4.110;2022-07-18T08:45:51;6.05;;;4.93;;
73239;SDS011;61452;40.054;4.110;2022-07-18T08:51:00;5.65;;;4.32;;
73239;SDS011;61452;40.054;4.110;2022-07-18T08:56:03;6.13;;;4.82;;
73239;SDS011;61452;40.054;4.110;2022-07-18T09:01:06;5.20;;;4.55;;
73239;SDS011;61452;40.054;4.110;2022-07-18T09:06:10;6.75;;;5.32;;
73239;SDS011;61452;40.054;4.110;2022-07-18T09:11:14;6.75;;;4.63;;
73239;SDS011;61452;40.054;4.110;2022-07-18T09:16:36;5.82;;;5.07;;
73239;SDS011;61452;40.054;4.110;2022-07-18T09:21:39;7.05;;;4.70;;
73239;SDS011;61452;40.054;4.110;2022-07-18T09:26:42;6.60;;;5.20;;
73239;SDS011;61452;40.054;4.110;2022-07-18T09:31:49;6.18;;;5.13;;
73239;SDS011;61452;40.054;4.110;2022-07-18T09:36:55;8.25;;;4.88;;
73239;SDS011;61452;40.054;4.110;2022-07-18T09:42:14;7.68;;;5.70;;
73239;SDS011;61452;40.054;4.110;2022-07-18T09:47:20;6.05;;;5.45;;
73239;SDS011;61452;40.054;4.110;2022-07-18T09:52:23;6.38;;;5.25;;
73239;SDS011;61452;40.054;4.110;2022-07-18T09:57:26;5.43;;;4.93;;
73239;SDS011;61452;40.054;4.110;2022-07-18T10:02:29;5.57;;;5.07;;
73239;SDS011;61452;40.054;4.110;2022-07-18T10:07:33;8.10;;;5.03;;
73239;SDS011;61452;40.054;4.110;2022-07-18T10:12:35;7.28;;;5.53;;
73239;SDS011;61452;40.054;4.110;2022-07-18T10:17:38;8.55;;;5.47;;
73239;SDS011;61452;40.054;4.110;2022-07-18T10:22:41;6.22;;;5.00;;
73239;SDS011;61452;40.054;4.110;2022-07-18T10:27:49;7.57;;;5.00;;
73239;SDS011;61452;40.054;4.110;2022-07-18T10:32:56;5.35;;;4.70;;
73239;SDS011;61452;40.054;4.110;2022-07-18T10:38:18;7.15;;;4.95;;
73239;SDS011;61452;40.054;4.110;2022-07-18T11:09:36;6.22;;;4.10;;
73239;SDS011;61452;40.054;4.110;2022-07-18T11:20:24;4.60;;;4.18;;
73239;SDS011;61452;40.054;4.110;2022-07-18T11:25:36;4.78;;;3.95;;
73239;SDS011;61452;40.054;4.110;2022-07-18T11:31:02;5.97;;;3.70;;
73239;SDS011;61452;40.054;4.110;2022-07-18T11:36:08;5.72;;;4.28;;
73239;SDS011;61452;40.054;4.110;2022-07-18T11:41:13;5.53;;;4.18;;
73239;SDS011;61452;40.054;4.110;2022-07-18T11:46:17;5.40;;;4.13;;
73239;SDS011;61452;40.054;4.110;2022-07-18T11:51:22;3.72;;;3.42;;
73239;SDS011;61452;40.054;4.110;2022-07-18T11:56:24;4.50;;;4.10;;
73239;SDS011;61452;40.054;4.110;2022-07-18T12:01:30;4.32;;;3.88;;
73239;SDS011;61452;40.054;4.110;2022-07-18T12:06:35;4.30;;;3.90;;
73239;SDS011;61452;40.054;4.110;2022-07-18T12:11:38;4.90;;;3.80;;
73239;SDS011;61452;40.054;4.110;2022-07-18T12:16:58;4.55;;;3.72;;
73239;SDS011;61452;40.054;4.110;2022-07-18T12:27:10;4.97;;;3.85;;
73239;SDS011;61452;40.054;4.110;2022-07-18T12:32:23;5.47;;;4.15;;
73239;SDS011;61452;40.054;4.110;2022-07-18T12:37:27;4.20;;;3.80;;
73239;SDS011;61452;40.054;4.110;2022-07-18T12:42:32;6.25;;;4.10;;
73239;SDS011;61452;40.054;4.110;2022-07-18T12:47:39;4.05;;;3.67;;
73239;SDS011;61452;40.054;4.110;2022-07-18T12:52:41;5.28;;;4.40;;
73239;SDS011;61452;40.054;4.110;2022-07-18T12:57:44;4.28;;;3.63;;
73239;SDS011;61452;40.054;4.110;2022-07-18T13:02:46;4.20;;;3.78;;
73239;SDS011;61452;40.054;4.110;2022-07-18T13:07:48;3.95;;;3.65;;
73239;SDS011;61452;40.054;4.110;2022-07-18T13:12:51;4.15;;;3.75;;
73239;SDS011;61452;40.054;4.110;2022-07-18T13:17:53;4.35;;;3.90;;
73239;SDS011;61452;40.054;4.110;2022-07-18T13:22:56;4.20;;;3.80;;
73239;SDS011;61452;40.054;4.110;2022-07-18T13:28:03;7.82;;;3.78;;
73239;SDS011;61452;40.054;4.110;2022-07-18T13:33:06;5.88;;;3.95;;
73239;SDS011;61452;40.054;4.110;2022-07-18T13:38:08;6.78;;;4.20;;
73239;SDS011;61452;40.054;4.110;2022-07-18T13:43:10;5.03;;;4.53;;
73239;SDS011;61452;40.054;4.110;2022-07-18T13:48:13;6.50;;;4.13;;
73239;SDS011;61452;40.054;4.110;2022-07-18T13:53:15;4.30;;;3.90;;
73239;SDS011;61452;40.054;4.110;2022-07-18T13:58:18;5.78;;;3.70;;
73239;SDS011;61452;40.054;4.110;2022-07-18T14:03:24;5.03;;;4.53;;
73239;SDS011;61452;40.054;4.110;2022-07-18T14:08:27;6.97;;;3.78;;
73239;SDS011;61452;40.054;4.110;2022-07-18T14:13:29;5.72;;;4.25;;
73239;SDS011;61452;40.054;4.110;2022-07-18T14:18:32;7.22;;;3.80;;
73239;SDS011;61452;40.054;4.110;2022-07-18T14:23:34;5.35;;;4.25;;
73239;SDS011;61452;40.054;4.110;2022-07-18T14:28:37;6.13;;;4.32;;
73239;SDS011;61452;40.054;4.110;2022-07-18T14:33:39;7.40;;;4.53;;
73239;SDS011;61452;40.054;4.110;2022-07-18T14:38:41;6.13;;;4.28;;
73239;SDS011;61452;40.054;4.110;2022-07-18T14:43:44;4.30;;;3.90;;
73239;SDS011;61452;40.054;4.110;2022-07-18T14:48:46;4.57;;;4.18;;
73239;SDS011;61452;40.054;4.110;2022-07-18T14:53:50;4.47;;;3.88;;
73239;SDS011;61452;40.054;4.110;2022-07-18T14:58:52;5.40;;;3.70;;
73239;SDS011;61452;40.054;4.110;2022-07-18T15:03:55;4.75;;;4.30;;
73239;SDS011;61452;40.054;4.110;2022-07-18T15:09:07;6.45;;;4.60;;
73239;SDS011;61452;40.054;4.110;2022-07-18T15:14:11;4.85;;;4.03;;
73239;SDS011;61452;40.054;4.110;2022-07-18T15:19:13;4.88;;;4.25;;
73239;SDS011;61452;40.054;4.110;2022-07-18T15:24:16;4.97;;;4.30;;
73239;SDS011;61452;40.054;4.110;2022-07-18T15:29:18;4.75;;;4.35;;
73239;SDS011;61452;40.054;4.110;2022-07-18T15:34:21;6.22;;;4.28;;
73239;SDS011;61452;40.054;4.110;2022-07-18T15:39:24;6.07;;;4.45;;
73239;SDS011;61452;40.054;4.110;2022-07-18T15:44:27;8.07;;;4.60;;
73239;SDS011;61452;40.054;4.110;2022-07-18T15:49:29;7.88;;;4.25;;
73239;SDS011;61452;40.054;4.110;2022-07-18T15:54:32;6.70;;;5.10;;
73239;SDS011;61452;40.054;4.110;2022-07-18T15:59:35;10.20;;;5.00;;
73239;SDS011;61452;40.054;4.110;2022-07-18T16:04:38;7.95;;;5.10;;
73239;SDS011;61452;40.054;4.110;2022-07-18T16:09:42;5.68;;;4.53;;
73239;SDS011;61452;40.054;4.110;2022-07-18T16:14:44;9.52;;;5.07;;
73239;SDS011;61452;40.054;4.110;2022-07-18T16:19:47;6.78;;;4.97;;
73239;SDS011;61452;40.054;4.110;2022-07-18T16:24:49;8.88;;;4.93;;
73239;SDS011;61452;40.054;4.110;2022-07-18T16:29:51;8.18;;;6.10;;
73239;SDS011;61452;40.054;4.110;2022-07-18T16:34:57;7.10;;;4.82;;
73239;SDS011;61452;40.054;4.110;2022-07-18T16:40:00;7.30;;;5.65;;
73239;SDS011;61452;40.054;4.110;2022-07-18T16:45:04;5.55;;;4.95;;
73239;SDS011;61452;40.054;4.110;2022-07-18T16:50:08;5.70;;;5.07;;
73239;SDS011;61452;40.054;4.110;2022-07-18T16:55:11;6.22;;;5.63;;
73239;SDS011;61452;40.054;4.110;2022-07-18T17:00:15;5.65;;;5.10;;
73239;SDS011;61452;40.054;4.110;2022-07-18T17:05:18;6.47;;;5.82;;
73239;SDS011;61452;40.054;4.110;2022-07-18T17:10:20;6.95;;;6.25;;
73239;SDS011;61452;40.054;4.110;2022-07-18T17:15:24;6.38;;;5.78;;
73239;SDS011;61452;40.054;4.110;2022-07-18T17:20:27;6.10;;;5.50;;
73239;SDS011;61452;40.054;4.110;2022-07-18T17:25:30;7.03;;;6.40;;
73239;SDS011;61452;40.054;4.110;2022-07-18T17:30:35;8.18;;;6.43;;
73239;SDS011;61452;40.054;4.110;2022-07-18T17:35:38;6.55;;;5.68;;
73239;SDS011;61452;40.054;4.110;2022-07-18T17:40:41;6.35;;;5.75;;
73239;SDS011;61452;40.054;4.110;2022-07-18T17:50:47;6.53;;;5.97;;
73239;SDS011;61452;40.054;4.110;2022-07-18T17:55:49;6.97;;;6.38;;
73239;SDS011;61452;40.054;4.110;2022-07-18T18:00:52;6.35;;;5.50;;
73239;SDS011;61452;40.054;4.110;2022-07-18T18:05:55;7.97;;;5.95;;
73239;SDS011;61452;40.054;4.110;2022-07-18T18:10:57;6.65;;;5.72;;
73239;SDS011;61452;40.054;4.110;2022-07-18T18:15:59;6.57;;;5.68;;
73239;SDS011;61452;40.054;4.110;2022-07-18T18:21:02;6.57;;;5.63;;
73239;SDS011;61452;40.054;4.110;2022-07-18T18:26:05;6.22;;;5.63;;
73239;SDS011;61452;40.054;4.110;2022-07-18T18:31:07;6.43;;;5.70;;
73239;SDS011;61452;40.054;4.110;2022-07-18T18:36:10;8.63;;;6.07;;
73239;SDS011;61452;40.054;4.110;2022-07-18T18:41:12;7.68;;;6.05;;
73239;SDS011;61452;40.054;4.110;2022-07-18T18:46:15;6.63;;;5.72;;
73239;SDS011;61452;40.054;4.110;2022-07-18T18:51:17;5.88;;;5.35;;
73239;SDS011;61452;40.054;4.110;2022-07-18T18:56:20;6.75;;;5.75;;
73239;SDS011;61452;40.054;4.110;2022-07-18T19:01:22;6.65;;;6.05;;
73239;SDS011;61452;40.054;4.110;2022-07-18T19:06:25;6.82;;;6.22;;
73239;SDS011;61452;40.054;4.110;2022-07-18T19:16:32;9.60;;;5.63;;
73239;SDS011;61452;40.054;4.110;2022-07-18T19:21:34;7.55;;;5.75;;
73239;SDS011;61452;40.054;4.110;2022-07-18T19:26:37;7.43;;;6.15;;
73239;SDS011;61452;40.054;4.110;2022-07-18T19:31:39;9.60;;;5.45;;
73239;SDS011;61452;40.054;4.110;2022-07-18T19:36:43;6.72;;;6.13;;
73239;SDS011;61452;40.054;4.110;2022-07-18T19:41:46;8.77;;;6.47;;
73239;SDS011;61452;40.054;4.110;2022-07-18T19:46:48;7.88;;;6.25;;
73239;SDS011;61452;40.054;4.110;2022-07-18T19:51:51;7.40;;;5.93;;
73239;SDS011;61452;40.054;4.110;2022-07-18T19:56:53;6.80;;;6.18;;
73239;SDS011;61452;40.054;4.110;2022-07-18T20:01:56;7.15;;;6.43;;
73239;SDS011;61452;40.054;4.110;2022-07-18T20:06:59;6.18;;;5.57;;
73239;SDS011;61452;40.054;4.110;2022-07-18T20:12:09;8.00;;;6.57;;
73239;SDS011;61452;40.054;4.110;2022-07-18T20:17:11;7.00;;;6.30;;
73239;SDS011;61452;40.054;4.110;2022-07-18T20:22:14;8.25;;;6.72;;
73239;SDS011;61452;40.054;4.110;2022-07-18T20:27:17;9.00;;;6.72;;
73239;SDS011;61452;40.054;4.110;2022-07-18T20:32:19;10.15;;;6.65;;
73239;SDS011;61452;40.054;4.110;2022-07-18T20:37:21;7.45;;;6.45;;
73239;SDS011;61452;40.054;4.110;2022-07-18T20:42:24;9.27;;;6.63;;
73239;SDS011;61452;40.054;4.110;2022-07-18T20:47:26;9.75;;;7.45;;
73239;SDS011;61452;40.054;4.110;2022-07-18T20:52:29;9.27;;;7.55;;
73239;SDS011;61452;40.054;4.110;2022-07-18T20:57:31;8.57;;;7.43;;
73239;SDS011;61452;40.054;4.110;2022-07-18T21:02:34;8.68;;;7.20;;
73239;SDS011;61452;40.054;4.110;2022-07-18T21:07:36;8.50;;;7.45;;
73239;SDS011;61452;40.054;4.110;2022-07-18T21:12:41;10.93;;;8.18;;
73239;SDS011;61452;40.054;4.110;2022-07-18T21:17:48;11.30;;;8.05;;
73239;SDS011;61452;40.054;4.110;2022-07-18T21:22:51;9.02;;;7.60;;
73239;SDS011;61452;40.054;4.110;2022-07-18T21:27:54;10.05;;;7.88;;
73239;SDS011;61452;40.054;4.110;2022-07-18T21:33:12;8.95;;;7.47;;
73239;SDS011;61452;40.054;4.110;2022-07-18T21:38:14;8.02;;;7.20;;
73239;SDS011;61452;40.054;4.110;2022-07-18T21:43:16;8.80;;;8.02;;
73239;SDS011;61452;40.054;4.110;2022-07-18T21:48:19;8.68;;;6.97;;
73239;SDS011;61452;40.054;4.110;2022-07-18T21:53:21;6.55;;;5.95;;
73239;SDS011;61452;40.054;4.110;2022-07-18T21:58:23;9.52;;;7.57;;
73239;SDS011;61452;40.054;4.110;2022-07-18T22:03:25;8.75;;;7.43;;
73239;SDS011;61452;40.054;4.110;2022-07-18T22:08:28;10.15;;;7.50;;
73239;SDS011;61452;40.054;4.110;2022-07-18T22:13:30;9.23;;;7.50;;
73239;SDS011;61452;40.054;4.110;2022-07-18T22:18:32;10.02;;;7.70;;
73239;SDS011;61452;40.054;4.110;2022-07-18T22:23:35;9.38;;;8.07;;
73239;SDS011;61452;40.054;4.110;2022-07-18T22:28:37;9.60;;;7.72;;
73239;SDS011;61452;40.054;4.110;2022-07-18T22:33:40;16.40;;;9.07;;
73239;SDS011;61452;40.054;4.110;2022-07-18T22:43:44;7.85;;;7.03;;
73239;SDS011;61452;40.054;4.110;2022-07-18T22:48:47;8.57;;;7.35;;
73239;SDS011;61452;40.054;4.110;2022-07-18T22:53:49;7.90;;;7.05;;
73239;SDS011;61452;40.054;4.110;2022-07-18T22:58:52;7.25;;;6.55;;
73239;SDS011;61452;40.054;4.110;2022-07-18T23:03:54;8.30;;;7.32;;
73239;SDS011;61452;40.054;4.110;2022-07-18T23:08:56;8.20;;;7.40;;
73239;SDS011;61452;40.054;4.110;2022-07-18T23:13:59;8.50;;;6.80;;
73239;SDS011;61452;40.054;4.110;2022-07-18T23:19:01;9.98;;;7.57;;
73239;SDS011;61452;40.054;4.110;2022-07-18T23:24:04;7.60;;;6.88;;
73239;SDS011;61452;40.054;4.110;2022-07-18T23:29:06;8.57;;;7.72;;
73239;SDS011;61452;40.054;4.110;2022-07-18T23:34:09;9.65;;;8.77;;
73239;SDS011;61452;40.054;4.110;2022-07-18T23:39:12;7.65;;;6.85;;
73239;SDS011;61452;40.054;4.110;2022-07-18T23:44:14;9.43;;;7.70;;
73239;SDS011;61452;40.054;4.110;2022-07-18T23:49:16;9.45;;;8.07;;
73239;SDS011;61452;40.054;4.110;2022-07-18T23:54:18;9.73;;;8.80;;
73239;SDS011;61452;40.054;4.110;2022-07-18T23:59:21;10.45;;;7.95;;
